Airfield :
LOGIN :

Register | Disclaimer

   EN    FR    IT 

 










Legend :    VFR   Marginal VFR   IFR   Intensive IFR   Very Intensive IFR
Visi :
Ceiling :
>= 8 km
>= 3000ft
5 to 8 km
1000 to 3000 ft
1500m to 5 km
500 to 1000 ft
800 to 1500m
200 to 500 ft
< 800m
< 200 ft
Symbols :   Thunderstorms  Fog  Heavy snow  Heavy precipitations  Wind > 20 kt
SIGMETs :     Misc.  Thunderstorms  Icing  Turbulence  Mountain Waves  Volcanic Ashes







- Airport Elevation : 19 ft
- IATA code : BEB
- Download approach charts


EGPL - Benbecula

CURRENT METAR :
  • 210420Z AUTO 13008KT 9999 NCD 02/M00 Q1007

EXPIRED METARs :
  • 210350Z AUTO 12007KT 9999 NCD 02/M00 Q1007
  • 210320Z AUTO 13006KT 9999 NCD 02/M01 Q1008
  • 210250Z AUTO 13004KT 9999 NCD 01/M01 Q1008
  • 210220Z AUTO 13005KT 9999 NCD 01/M01 Q1008
  • 210150Z AUTO 13005KT 9999 NCD 01/M01 Q1008

TAF TAF EGPL
Valid from the 21 at 03:00 until the 21 at 12:00 UTC


210158Z 2103/2112 14007KT 9999 SCT030
BECMG 2108/2112 15020G30KT
TEMPO 2110/2112 15030G43KT 6000 -RASN BKN008
PROB40
TEMPO 2110/2112 4000 FZRA BKN005
ATIS : +44 1870 604 818
No reported NOTAMs for that airfield.
1 SIGMET reported for the Scottish FIR (EGPX) :
 
Severe icing
EGPX SIGMET 02 VALID 210435/210715 EGRR
EGPX SCOTTISH FIR SEV ICE FCST SW OF LINE N5759 W01000 - N5500 W00248 FL020/140 MOV NE 10KT NC=



MET'MAP, your aeronautical weather chart ! - Copyright ORBIFLY December 2007 - Disclaimer

ORBIFLY MET'MAP TEAM :

Programming & Development : Alexandra Zaïnal
Concept & Development : Baudouin d'Aumeries
Co-Development & Prog : Marc-Olivier Méhu
Technical & hardware support : Manuel Goepfert

Contact : metmap@orbifly.com




SOURCES & CREDITS :

   NOAA